Bay City, Oregon
Current Conditions -  °F | °C
As of 7:55 PM on Thursday 27 Nov 2014 (Local Time) from KTMK Reporting Station
Light Rain Light Rain  
Wind Chill: 55°   Ceiling: 1600
Heat Index: 55°   Visibility: 7mi
Dew Point: 54°   Wind: 0mph
Humidity: 94%   Direction: NA
Pressure: 29.86"   Gusts: NA
Location:  45.52°N, 123.89°W
Report Text: KTMK 280355Z AUTO 00000KT 7SM -RA BKN016 OVC023 13/12 A2986 RMK AO2 P0003
Loading
Personal Weather Stations






























Interactive Weather Map New forecast layout! Learn more

10-Day Weather Forecast

Advertisements
Track Severe Weather on mobile